Impacts TAF Board INFO
FOR SITUATIONAL AWARENESS. NOT TO BE USED FOR FLIGHT PLANNING PURPOSES.
IDs:

KLAX - Los Angeles Intl, CA, US

Issued at 1302 UTC 23 Jun 2018
Updated at 1341 UTC 23 Jun 2018
Potential Impact None Slight Moderate High
Time1253Z 23/14Z 23/15Z 23/16Z 23/17Z 23/18Z 23/19Z 23/20Z 23/21Z 23/22Z 23/23Z 24/00Z 24/01Z 24/02Z>>
Type OBS PRVL PRVL PRVL PRVL PRVL PRVL PRVL PRVL PRVL PRVL PRVL PRVL PRVL
VIS 3 3 3 3 6 6 6 >6 >6 >6 >6 >6 >6 >6
CIG 8 8 8 8 13 13 13 15 15 -- -- -- -- --
Cover OVC OVC OVC OVC OVC OVC OVC BKN BKN SCT SCT SCT SCT SCT
FltCat IFR IFR IFR IFR MVFR MVFR MVFR MVFR MVFR VFR VFR VFR VFR VFR
WX BR BR BR BR BR BR BR -- -- -- -- -- -- --
WDir 160 160 160 160 240 240 240 250 250 260 260 260 260 260
WSpd 7 7 7 7 6 6 6 10 10 10 10 10 10 10
WGst -- -- -- -- -- -- -- -- -- -- -- -- -- --

Raw TAF
KLAX 231302Z 2313/2418 16007KT 3SM BR OVC008
  FM231700 24006KT 6SM BR OVC013
  FM232000 25010KT P6SM BKN015
  FM232200 26010KT P6SM SCT017
  FM240300 26006KT P6SM BKN012
  FM240900 14006KT P6SM OVC015
  FM241600 18006KT P6SM OVC017


Raw METAR
KLAX 231253Z 16007KT 3SM BR OVC008 17/16 A2981 RMK AO2 SLP091 VIS W 2 1/2 T01720156 $
KLAX 231153Z 09005KT 7SM OVC008 18/16 A2980 RMK AO2 SLP090 T01780161 10183 20167 56003 $
KLAX 231053Z 07004KT 5SM BR SCT006 OVC008 18/16 A2980 RMK AO2 SLP090 VIS SW-W 2 T01780156 $

METAR Board
Radar Display
Forecast Discussion

FOR SITUATIONAL AWARENESS. NOT TO BE USED FOR FLIGHT PLANNING PURPOSES.